Time;durP1;ratioP1;P1;durP2;ratioP2;P2;SDS_P1;SDS_P2;PMS_P1;PMS_P2;Temp;Humidity;BMP_temperature;BMP_pressure;BME280_temperature;BME280_humidity;BME280_pressure;Samples;Min_cycle;Max_cycle;Signal;HPM_P1;HPM_P2
2021/07/23 00:02:15;;;;;;;3.05;2.38;;;;;;;23.49;45.92;94062.53;4983726;28;20046;-72
2021/07/23 00:04:40;;;;;;;5.10;2.70;;;;;;;23.43;46.14;94061.22;4982941;28;20347;-71
2021/07/23 00:07:06;;;;;;;5.00;3.50;;;;;;;23.23;46.23;94038.97;4983466;28;20049;-71
2021/07/23 00:09:31;;;;;;;8.55;3.70;;;;;;;23.30;46.48;94060.66;4981209;28;20573;-71
2021/07/23 00:11:56;;;;;;;7.28;3.10;;;;;;;23.24;46.70;94065.59;4985965;28;20021;-71
2021/07/23 00:14:22;;;;;;;2.90;2.55;;;;;;;23.33;46.24;94068.81;4982002;28;20030;-73
2021/07/23 00:16:48;;;;;;;4.50;3.13;;;;;;;23.28;46.20;94065.63;4984244;28;20466;-71
2021/07/23 00:19:13;;;;;;;2.92;2.28;;;;;;;23.21;46.35;94068.97;4983215;28;20041;-73
2021/07/23 00:21:39;;;;;;;6.88;3.25;;;;;;;23.26;46.27;94067.94;4982325;28;20038;-73
2021/07/23 00:24:05;;;;;;;4.35;3.55;;;;;;;23.25;46.20;94066.38;4985816;28;20073;-72
2021/07/23 00:26:30;;;;;;;4.03;3.13;;;;;;;23.25;46.34;94071.75;4986168;28;20026;-73
2021/07/23 00:28:55;;;;;;;3.80;2.70;;;;;;;23.37;46.12;94068.84;4983592;28;20107;-72
2021/07/23 00:31:21;;;;;;;4.45;2.83;;;;;;;23.29;46.36;94059.09;4984044;28;20034;-72
2021/07/23 00:33:46;;;;;;;4.47;2.72;;;;;;;23.21;46.30;94060.16;4982820;28;20045;-72
2021/07/23 00:36:11;;;;;;;5.93;2.85;;;;;;;23.21;46.20;94060.16;4982733;28;20042;-72
2021/07/23 00:38:37;;;;;;;4.97;2.95;;;;;;;23.22;46.37;94058.97;4987376;28;20036;-73
2021/07/23 00:41:02;;;;;;;5.30;3.30;;;;;;;23.16;46.16;94042.34;4980714;28;20050;-71
2021/07/23 00:43:28;;;;;;;5.20;3.25;;;;;;;22.94;46.13;94007.31;4986353;28;20033;-72
2021/07/23 00:45:54;;;;;;;4.03;2.97;;;;;;;23.33;46.26;94063.41;4978690;28;20052;-72
2021/07/23 00:48:19;;;;;;;3.10;2.80;;;;;;;23.33;46.47;94062.63;4982342;28;20519;-72
2021/07/23 00:50:46;;;;;;;4.50;3.20;;;;;;;23.33;46.39;94058.00;4984636;28;20512;-72
2021/07/23 00:53:12;;;;;;;3.38;2.90;;;;;;;23.32;46.30;94061.06;4981434;28;20526;-71
2021/07/23 00:55:40;;;;;;;4.18;2.90;;;;;;;23.31;46.19;94049.50;4984877;28;20419;-71
2021/07/23 00:58:06;;;;;;;2.88;2.55;;;;;;;23.25;46.05;94039.41;4987310;28;20045;-71
2021/07/23 01:00:32;;;;;;;3.35;3.05;;;;;;;23.30;46.18;94050.66;4985208;28;20038;-72
2021/07/23 01:02:58;;;;;;;3.45;2.95;;;;;;;23.24;46.13;94049.41;4985342;28;20034;-72
2021/07/23 01:05:23;;;;;;;11.52;2.80;;;;;;;23.21;46.14;94039.31;4981850;28;20042;-72
2021/07/23 01:07:49;;;;;;;4.32;3.22;;;;;;;23.10;46.43;94045.72;4982298;28;20463;-72
2021/07/23 01:10:15;;;;;;;4.53;2.97;;;;;;;23.13;46.35;94042.28;4984001;28;20558;-73
2021/07/23 01:12:40;;;;;;;3.33;2.80;;;;;;;23.21;46.03;94044.72;4981033;28;20031;-71
2021/07/23 01:15:06;;;;;;;3.63;2.92;;;;;;;23.17;46.20;94043.09;4984095;28;20078;-71
2021/07/23 01:17:32;;;;;;;3.13;2.83;;;;;;;23.23;46.16;94044.38;4983311;28;21046;-72
2021/07/23 01:20:08;;;;;;;3.35;3.05;;;;;;;23.23;46.16;94041.66;4983706;28;20041;-72
2021/07/23 01:22:37;;;;;;;4.80;3.20;;;;;;;23.26;45.99;94043.66;4982281;28;20048;-73
2021/07/23 01:25:04;;;;;;;3.03;2.72;;;;;;;23.28;45.94;94044.84;4983825;28;20053;-72
2021/07/23 01:27:32;;;;;;;9.40;2.92;;;;;;;23.26;46.05;94041.72;4982588;28;20523;-72
2021/07/23 01:30:09;;;;;;;6.82;3.00;;;;;;;23.21;45.99;94035.88;4982635;28;20140;-72
2021/07/23 01:32:35;;;;;;;3.60;2.85;;;;;;;23.22;45.98;94032.03;4981550;28;20030;-72
2021/07/23 01:35:00;;;;;;;3.92;2.95;;;;;;;23.27;46.12;94037.88;4980689;28;20443;-72
2021/07/23 01:37:26;;;;;;;2.97;2.50;;;;;;;23.23;46.04;94041.66;4979767;28;20686;-72
2021/07/23 01:39:53;;;;;;;2.85;2.55;;;;;;;23.26;46.02;94030.94;4981850;28;20038;-71
2021/07/23 01:42:19;;;;;;;2.60;2.40;;;;;;;23.18;46.18;94023.88;4985359;28;20042;-72
2021/07/23 01:44:44;;;;;;;3.85;3.10;;;;;;;23.13;46.31;94020.72;4982909;28;20639;-72
2021/07/23 01:47:09;;;;;;;3.50;2.95;;;;;;;23.19;46.27;94032.75;4983007;28;20030;-72
2021/07/23 01:49:35;;;;;;;5.50;2.35;;;;;;;23.15;46.13;94023.84;4982982;28;20122;-72
2021/07/23 01:52:00;;;;;;;4.85;2.60;;;;;;;23.21;46.19;94038.56;4982879;28;20120;-72
2021/07/23 01:54:26;;;;;;;6.70;3.13;;;;;;;23.14;45.94;94033.06;4980249;28;20034;-72
2021/07/23 01:56:51;;;;;;;4.88;2.97;;;;;;;23.20;46.08;94031.63;4982635;28;20060;-72
2021/07/23 01:59:16;;;;;;;3.97;2.83;;;;;;;22.97;46.23;94015.44;4980824;28;20079;-72
2021/07/23 02:01:42;;;;;;;3.53;2.53;;;;;;;23.09;46.46;94036.06;4982024;28;20046;-72
2021/07/23 02:04:07;;;;;;;5.22;2.72;;;;;;;22.98;46.62;94035.09;4979711;28;20361;-71
2021/07/23 02:06:33;;;;;;;2.65;2.42;;;;;;;23.00;46.61;94035.53;4982073;28;20137;-72
2021/07/23 02:08:58;;;;;;;3.15;2.33;;;;;;;22.94;46.84;94035.06;4982080;28;20030;-72
2021/07/23 02:11:23;;;;;;;4.25;2.72;;;;;;;22.83;47.28;94044.88;4983913;28;20794;-72
2021/07/23 02:13:49;;;;;;;4.18;2.50;;;;;;;22.77;47.12;94039.00;4979134;28;20054;-71
2021/07/23 02:16:14;;;;;;;2.88;2.28;;;;;;;22.85;46.79;94048.78;4980503;28;20044;-72
2021/07/23 02:18:39;;;;;;;4.28;3.10;;;;;;;22.74;47.52;94047.03;4985776;28;20058;-72
2021/07/23 02:21:06;;;;;;;5.70;2.45;;;;;;;22.64;47.37;94036.81;4983207;28;20030;-72
2021/07/23 02:23:32;;;;;;;3.75;2.65;;;;;;;22.76;47.15;94048.22;4979941;28;20026;-72
2021/07/23 02:25:58;;;;;;;2.97;2.38;;;;;;;22.57;47.40;94032.09;4983211;28;20314;-72
2021/07/23 02:28:23;;;;;;;2.92;2.42;;;;;;;22.64;47.40;94040.28;4982402;28;20045;-71
2021/07/23 02:30:48;;;;;;;4.10;2.72;;;;;;;22.56;47.61;94035.91;4981229;28;20239;-72
2021/07/23 02:33:14;;;;;;;4.38;2.88;;;;;;;22.46;47.73;94041.88;4982332;28;20607;-72
2021/07/23 02:35:39;;;;;;;2.97;2.53;;;;;;;22.33;47.87;94032.41;4981143;28;21061;-72
2021/07/23 02:38:05;;;;;;;5.80;2.83;;;;;;;22.35;47.93;94040.91;4984010;28;20034;-72
2021/07/23 02:40:30;;;;;;;3.58;2.65;;;;;;;22.38;48.19;94038.25;4983298;28;20104;-72
2021/07/23 02:42:55;;;;;;;5.13;2.50;;;;;;;22.40;47.97;94043.28;4985603;28;20061;-72
2021/07/23 02:45:21;;;;;;;7.07;3.17;;;;;;;22.39;47.95;94047.91;4984496;28;20042;-72
2021/07/23 02:47:48;;;;;;;4.60;3.00;;;;;;;22.34;47.75;94039.34;4984932;28;20025;-72
2021/07/23 02:50:13;;;;;;;3.63;2.60;;;;;;;22.19;48.10;94037.50;4985589;28;20455;-72
2021/07/23 02:52:39;;;;;;;3.03;2.47;;;;;;;22.16;48.22;94040.91;4989647;28;20030;-72
2021/07/23 02:55:04;;;;;;;5.97;3.40;;;;;;;22.09;48.12;94030.03;4985333;28;20043;-71
2021/07/23 02:57:30;;;;;;;3.92;3.40;;;;;;;22.17;48.21;94034.41;4985600;28;20362;-73
2021/07/23 02:59:55;;;;;;;4.80;2.95;;;;;;;22.12;48.17;94027.41;4983768;28;20531;-72
2021/07/23 03:02:21;;;;;;;5.72;3.20;;;;;;;22.08;48.08;94039.22;4985292;28;20057;-72
2021/07/23 03:04:46;;;;;;;6.78;3.47;;;;;;;22.20;48.02;94033.69;4987571;28;20045;-71
2021/07/23 03:07:12;;;;;;;6.03;2.80;;;;;;;22.04;48.29;94025.69;4982406;28;20049;-72
2021/07/23 03:09:38;;;;;;;4.10;3.10;;;;;;;22.18;48.08;94044.81;4982472;28;20046;-73
2021/07/23 03:12:04;;;;;;;3.13;2.58;;;;;;;22.08;48.20;94041.91;4985089;28;20113;-72
2021/07/23 03:14:31;;;;;;;3.20;2.55;;;;;;;21.88;48.56;94031.13;4985770;28;20022;-72
2021/07/23 03:16:56;;;;;;;14.77;3.53;;;;;;;21.92;48.84;94040.03;4984842;28;20520;-72
2021/07/23 03:19:21;;;;;;;8.07;3.67;;;;;;;21.82;48.74;94029.84;4983917;28;20038;-72
2021/07/23 03:21:47;;;;;;;5.95;2.83;;;;;;;21.94;48.77;94043.16;4983677;28;20034;-73
2021/07/23 03:24:13;;;;;;;6.15;3.65;;;;;;;21.87;48.69;94045.69;4984944;28;21110;-72
2021/07/23 03:26:39;;;;;;;5.00;3.35;;;;;;;21.96;49.11;94042.81;4985616;28;20042;-72
2021/07/23 03:29:04;;;;;;;6.78;3.40;;;;;;;22.04;49.08;94041.81;4984289;28;20335;-72
2021/07/23 03:31:30;;;;;;;5.05;3.38;;;;;;;22.07;48.67;94040.34;4985302;28;20056;-72
2021/07/23 03:33:56;;;;;;;4.78;2.78;;;;;;;22.10;48.40;94040.41;4982036;28;20382;-72
2021/07/23 03:36:21;;;;;;;3.25;2.78;;;;;;;21.98;48.92;94044.03;4985101;28;20044;-72
2021/07/23 03:38:47;;;;;;;5.38;2.58;;;;;;;21.89;49.37;94045.34;4984445;28;20061;-72
2021/07/23 03:41:12;;;;;;;5.28;2.70;;;;;;;21.88;49.61;94041.88;4983834;28;20040;-71
2021/07/23 03:43:37;;;;;;;3.47;3.03;;;;;;;21.98;49.52;94046.72;4981118;28;20095;-72
2021/07/23 03:46:03;;;;;;;3.28;2.85;;;;;;;21.98;49.79;94035.19;4984699;28;20147;-72
2021/07/23 03:48:28;;;;;;;4.78;3.28;;;;;;;21.91;49.63;94033.09;4985758;28;20558;-71
2021/07/23 03:50:54;;;;;;;5.97;3.50;;;;;;;22.08;50.06;94045.38;4984393;28;20033;-72
2021/07/23 03:53:19;;;;;;;4.43;4.03;;;;;;;22.04;49.57;94031.84;4984009;28;20027;-72
2021/07/23 03:55:45;;;;;;;5.82;3.67;;;;;;;22.12;49.59;94037.38;4983987;28;20046;-72
2021/07/23 03:58:11;;;;;;;5.35;4.15;;;;;;;22.13;50.08;94047.00;4984149;28;20038;-72
2021/07/23 04:00:36;;;;;;;7.22;4.10;;;;;;;22.22;50.10;94039.50;4983171;28;20123;-71
2021/07/23 04:03:02;;;;;;;7.10;4.22;;;;;;;22.32;50.09;94052.38;4984892;28;20129;-72
2021/07/23 04:05:27;;;;;;;7.20;4.15;;;;;;;22.33;49.41;94053.94;4985469;28;20451;-72
2021/07/23 04:07:56;;;;;;;5.75;4.03;;;;;;;22.32;49.50;94038.94;4982880;28;20532;-72
2021/07/23 04:10:21;;;;;;;6.78;4.78;;;;;;;22.58;49.35;94055.16;4982685;28;20041;-72
2021/07/23 04:12:47;;;;;;;7.80;4.38;;;;;;;22.43;49.79;94042.59;4986323;28;20042;-71
2021/07/23 04:15:12;;;;;;;8.07;5.45;;;;;;;22.64;49.11;94053.75;4980263;28;20041;-72
2021/07/23 04:17:37;;;;;;;10.82;5.70;;;;;;;22.72;48.67;94049.31;4986355;28;20029;-71
2021/07/23 04:20:04;;;;;;;11.43;5.68;;;;;;;22.74;49.24;94053.19;4983466;28;20373;-73
2021/07/23 04:22:30;;;;;;;5.93;4.78;;;;;;;22.72;49.43;94044.69;4984029;28;20572;-72
2021/07/23 04:24:55;;;;;;;7.60;5.07;;;;;;;22.70;49.42;94025.41;4984881;28;20138;-73
2021/07/23 04:27:20;;;;;;;10.02;6.05;;;;;;;22.86;48.48;94034.16;4981645;28;20462;-72
2021/07/23 04:29:47;;;;;;;9.88;5.80;;;;;;;22.85;48.98;94038.00;4982688;28;20034;-72
2021/07/23 04:32:13;;;;;;;9.75;5.93;;;;;;;22.88;49.10;94039.97;4982150;28;20501;-71
2021/07/23 04:34:39;;;;;;;12.55;5.68;;;;;;;22.83;49.17;94024.09;4983167;28;20042;-73
2021/07/23 04:37:04;;;;;;;8.48;6.35;;;;;;;23.03;47.74;94042.88;4981444;28;20027;-72
2021/07/23 04:39:30;;;;;;;9.82;6.50;;;;;;;23.00;47.83;94035.53;4980685;28;20038;-72
2021/07/23 04:41:55;;;;;;;9.40;6.40;;;;;;;22.91;48.25;94021.53;4985257;28;20054;-73
2021/07/23 04:44:21;;;;;;;17.73;7.65;;;;;;;23.00;48.30;94035.53;4982823;28;20473;-73
2021/07/23 04:46:46;;;;;;;23.10;8.32;;;;;;;23.00;48.11;94028.22;4983058;28;20069;-71
2021/07/23 04:49:11;;;;;;;7.70;5.18;;;;;;;22.94;48.21;94034.28;4982547;28;20038;-72
2021/07/23 04:51:37;;;;;;;9.30;5.95;;;;;;;23.02;48.53;94044.03;4983397;28;20042;-72
2021/07/23 04:54:02;;;;;;;10.85;5.70;;;;;;;22.99;48.17;94034.75;4984187;28;20026;-72
2021/07/23 04:56:28;;;;;;;10.90;5.97;;;;;;;23.00;48.59;94035.53;4983223;28;20036;-72
2021/07/23 04:58:53;;;;;;;13.40;6.72;;;;;;;23.01;49.12;94039.78;4986181;28;20488;-72
2021/07/23 05:01:18;;;;;;;12.48;6.63;;;;;;;22.93;49.08;94035.41;4983688;28;20033;-73
2021/07/23 05:03:44;;;;;;;11.20;6.07;;;;;;;22.87;49.38;94033.00;4980070;28;20135;-72
2021/07/23 05:06:10;;;;;;;9.68;6.43;;;;;;;23.00;48.40;94043.63;4984019;28;20030;-72
2021/07/23 05:08:36;;;;;;;7.22;6.20;;;;;;;23.07;48.25;94038.31;4981331;28;20031;-72
2021/07/23 05:11:03;;;;;;;7.80;6.68;;;;;;;23.03;48.60;94037.50;4982661;28;20546;-72
2021/07/23 05:13:30;;;;;;;14.88;6.90;;;;;;;23.17;48.67;94035.03;4984019;28;20042;-72
2021/07/23 05:15:57;;;;;;;9.23;5.47;;;;;;;23.28;48.65;94033.28;4982292;28;20564;-73
2021/07/23 05:18:23;;;;;;;10.93;6.88;;;;;;;23.21;48.39;94017.00;4982323;28;20038;-72
2021/07/23 05:20:49;;;;;;;18.42;6.85;;;;;;;23.37;48.24;94027.63;4982746;28;20466;-71
2021/07/23 05:23:14;;;;;;;9.60;6.78;;;;;;;23.34;48.01;94023.75;4981704;28;20129;-72
2021/07/23 05:25:40;;;;;;;8.82;7.10;;;;;;;23.38;48.15;94029.19;4980443;28;20057;-72
2021/07/23 05:28:05;;;;;;;16.98;6.90;;;;;;;23.36;48.85;94029.53;4981432;28;20057;-73
2021/07/23 05:30:31;;;;;;;14.77;6.93;;;;;;;23.41;48.54;94026.53;4983847;28;20033;-72
2021/07/23 05:32:56;;;;;;;11.07;7.28;;;;;;;23.50;48.05;94029.78;4982516;28;20022;-71
2021/07/23 05:35:21;;;;;;;14.55;7.80;;;;;;;23.56;47.80;94035.63;4981597;28;20033;-71
2021/07/23 05:37:47;;;;;;;12.13;7.32;;;;;;;23.62;47.69;94042.28;4982324;28;21361;-72
2021/07/23 05:40:15;;;;;;;15.85;7.05;;;;;;;23.73;47.93;94040.50;4981626;28;20136;-71
2021/07/23 05:42:41;;;;;;;11.60;7.30;;;;;;;23.50;48.61;94043.28;4981401;28;20050;-72
2021/07/23 05:45:07;;;;;;;11.93;7.22;;;;;;;23.50;48.69;94040.59;4982628;28;20030;-72
2021/07/23 05:47:32;;;;;;;12.00;7.05;;;;;;;23.74;48.58;94034.75;4984224;28;20026;-71
2021/07/23 05:49:58;;;;;;;19.48;7.85;;;;;;;24.02;46.90;94036.25;4982500;28;20053;-71
2021/07/23 05:52:23;;;;;;;9.80;6.90;;;;;;;24.15;46.70;94042.97;4982005;28;20544;-72
2021/07/23 05:54:48;;;;;;;16.05;7.82;;;;;;;24.23;46.20;94035.75;4981497;28;20089;-71
2021/07/23 05:57:14;;;;;;;15.48;7.00;;;;;;;23.96;47.55;94040.41;4983348;28;20046;-72
2021/07/23 05:59:39;;;;;;;11.35;7.05;;;;;;;23.72;47.54;94025.44;4981965;28;20030;-72
2021/07/23 06:02:05;;;;;;;18.05;7.97;;;;;;;23.74;47.97;94029.34;4982746;28;20045;-72
2021/07/23 06:04:30;;;;;;;10.45;7.47;;;;;;;23.92;47.73;94026.88;4983454;28;20107;-71
2021/07/23 06:06:55;;;;;;;9.88;6.97;;;;;;;24.31;47.20;94045.50;4983729;28;20047;-72
2021/07/23 06:09:21;;;;;;;13.27;6.68;;;;;;;24.59;46.42;94037.69;4985218;28;20042;-72
2021/07/23 06:11:46;;;;;;;17.52;7.45;;;;;;;24.64;45.47;94036.56;4983525;28;20057;-71
2021/07/23 06:14:12;;;;;;;14.55;7.00;;;;;;;24.25;46.26;94022.66;4981120;28;20030;-72
2021/07/23 06:16:42;;;;;;;10.38;6.85;;;;;;;24.16;47.14;94028.31;4986515;28;20106;-71
2021/07/23 06:19:07;;;;;;;10.25;7.20;;;;;;;24.64;45.49;94039.28;4985690;28;20049;-72
2021/07/23 06:21:32;;;;;;;19.75;7.43;;;;;;;24.79;46.02;94035.56;4986945;28;20043;-71
2021/07/23 06:23:58;;;;;;;10.88;6.28;;;;;;;24.72;45.55;94022.00;4987888;28;20373;-72
2021/07/23 06:26:24;;;;;;;8.18;5.70;;;;;;;24.47;46.23;94037.97;4987961;28;20033;-72
2021/07/23 06:28:49;;;;;;;11.20;6.72;;;;;;;24.74;45.45;94030.50;4981392;28;20077;-72
2021/07/23 06:31:15;;;;;;;11.65;6.45;;;;;;;24.87;45.54;94045.34;4985647;28;20039;-72
2021/07/23 06:33:41;;;;;;;10.68;5.93;;;;;;;24.89;45.36;94026.81;4985889;28;20034;-72
2021/07/23 06:36:07;;;;;;;10.15;6.43;;;;;;;24.77;45.18;94032.47;4985156;28;20025;-72
2021/07/23 06:38:32;;;;;;;11.55;5.97;;;;;;;25.12;44.75;94030.09;4986819;28;20028;-71
2021/07/23 06:40:59;;;;;;;8.90;5.80;;;;;;;25.19;44.71;94038.28;4982618;28;20045;-72
2021/07/23 06:43:24;;;;;;;15.40;7.15;;;;;;;25.26;44.44;94034.84;4984094;28;20038;-72
2021/07/23 06:45:54;;;;;;;11.23;6.18;;;;;;;25.45;44.49;94032.69;4982900;28;20595;-72
2021/07/23 06:48:20;;;;;;;15.57;6.60;;;;;;;25.55;44.81;94027.75;4985183;28;20411;-71
2021/07/23 06:50:45;;;;;;;7.80;5.70;;;;;;;25.62;43.94;94030.47;4982893;28;20613;-71
2021/07/23 06:53:11;;;;;;;5.55;5.07;;;;;;;25.45;43.75;94027.28;4985580;28;20129;-72
2021/07/23 06:55:36;;;;;;;12.45;6.03;;;;;;;25.61;43.43;94026.25;4981253;28;20428;-73
2021/07/23 06:58:02;;;;;;;10.23;5.35;;;;;;;25.54;43.23;94012.63;4985066;28;20046;-72
2021/07/23 07:00:27;;;;;;;9.05;4.35;;;;;;;25.95;42.64;94024.09;4991346;28;20185;-72
2021/07/23 07:02:52;;;;;;;7.60;5.07;;;;;;;26.06;42.01;94012.13;4982738;28;20072;-71
2021/07/23 07:05:18;;;;;;;10.93;4.72;;;;;;;26.06;41.81;94025.69;4981861;28;20026;-72
2021/07/23 07:07:44;;;;;;;9.23;4.72;;;;;;;26.02;41.62;94022.19;4985530;28;20140;-72
2021/07/23 07:10:09;;;;;;;8.57;5.32;;;;;;;26.00;41.44;94029.91;4979816;28;20045;-72
2021/07/23 07:12:38;;;;;;;12.20;6.78;;;;;;;25.92;41.81;94006.66;4981560;28;20579;-72
2021/07/23 07:15:03;;;;;;;9.18;5.68;;;;;;;26.14;41.30;94019.16;4977892;28;20029;-73
2021/07/23 07:17:30;;;;;;;9.18;5.88;;;;;;;26.20;41.73;94006.78;4980098;28;20030;-72
2021/07/23 07:19:59;;;;;;;14.15;9.82;;;;;;;26.27;41.52;94020.38;4982694;28;20138;-72
2021/07/23 07:22:25;;;;;;;10.35;5.45;;;;;;;26.39;41.70;94021.22;4981464;28;20064;-73
2021/07/23 07:24:51;;;;;;;10.05;5.55;;;;;;;26.39;40.54;94015.78;4982989;28;20042;-72
2021/07/23 07:27:16;;;;;;;14.95;6.25;;;;;;;26.29;41.56;94009.94;4981745;28;20053;-72
2021/07/23 07:29:42;;;;;;;10.02;5.00;;;;;;;26.34;42.13;94010.75;4982742;28;20621;-73
2021/07/23 07:32:08;;;;;;;6.30;4.93;;;;;;;26.43;41.22;94003.03;4983398;28;20038;-71
2021/07/23 07:34:37;;;;;;;9.85;5.20;;;;;;;26.59;41.39;93998.00;4981286;28;20044;-72
2021/07/23 07:37:04;;;;;;;6.20;4.93;;;;;;;26.53;41.37;94004.97;4986787;28;20045;-73
2021/07/23 07:39:30;;;;;;;8.52;4.70;;;;;;;26.66;40.23;93998.03;4987136;28;20165;-72
2021/07/23 07:41:55;;;;;;;5.65;4.43;;;;;;;26.55;40.11;93994.50;4985391;28;20458;-72
2021/07/23 07:44:21;;;;;;;11.02;5.18;;;;;;;26.69;40.04;94002.66;4988972;28;20039;-73
2021/07/23 07:46:46;;;;;;;9.52;4.60;;;;;;;26.68;39.69;94003.84;4989564;28;20100;-72
2021/07/23 07:49:12;;;;;;;11.02;4.30;;;;;;;26.88;40.62;94002.34;4984906;28;20581;-73
2021/07/23 07:51:37;;;;;;;7.68;5.00;;;;;;;26.90;40.08;94005.44;4987089;28;20041;-72
2021/07/23 07:54:02;;;;;;;8.77;4.47;;;;;;;26.76;39.79;94007.34;4987879;28;20703;-73
2021/07/23 07:56:28;;;;;;;7.45;4.63;;;;;;;27.07;40.20;93995.78;4987119;28;20419;-73
2021/07/23 07:58:53;;;;;;;8.07;4.63;;;;;;;27.32;39.60;93998.47;4987690;28;20623;-73
2021/07/23 08:01:19;;;;;;;11.18;5.78;;;;;;;27.46;39.18;93996.53;4985786;28;20034;-72
2021/07/23 08:03:44;;;;;;;7.65;4.80;;;;;;;27.37;38.94;94006.97;4985682;28;20048;-73
2021/07/23 08:06:56;;;;;;;11.13;5.07;;;;;;;27.45;38.72;93999.63;4988495;28;20029;-72
2021/07/23 08:09:03;;;;;;;6.53;4.50;;;;;;;27.40;39.16;94002.72;4985788;28;21234;-72
2021/07/23 08:11:28;;;;;;;7.82;5.07;;;;;;;27.37;38.76;94004.25;4986919;28;20087;-72
2021/07/23 08:13:54;;;;;;;9.23;3.95;;;;;;;27.54;39.12;94000.78;4983935;28;20045;-72
2021/07/23 08:16:19;;;;;;;9.00;4.80;;;;;;;27.40;37.45;93997.28;4986798;28;20564;-73
2021/07/23 08:18:44;;;;;;;5.93;3.83;;;;;;;27.45;36.42;93986.81;4985483;28;20040;-72
2021/07/23 08:21:10;;;;;;;11.27;4.50;;;;;;;27.55;38.81;94002.34;4985922;28;20053;-72
2021/07/23 08:23:36;;;;;;;7.45;5.00;;;;;;;27.71;36.25;93990.28;4986341;28;20049;-72
2021/07/23 08:26:04;;;;;;;7.60;5.28;;;;;;;27.80;36.31;94002.28;4986063;28;20066;-72
2021/07/23 08:28:31;;;;;;;6.28;4.70;;;;;;;27.73;36.00;93985.22;4981401;28;20060;-73
2021/07/23 08:30:57;;;;;;;7.18;4.72;;;;;;;27.60;36.53;94001.19;4984105;28;20485;-72
2021/07/23 08:33:24;;;;;;;7.40;3.80;;;;;;;27.56;37.38;93992.28;4987718;28;20153;-72
2021/07/23 08:35:52;;;;;;;5.28;3.92;;;;;;;27.54;36.33;93997.31;4983596;28;20045;-72
2021/07/23 08:38:19;;;;;;;8.70;4.55;;;;;;;27.46;35.71;93993.81;4984958;28;20037;-71
2021/07/23 08:40:48;;;;;;;4.90;3.88;;;;;;;27.44;35.66;93987.22;4986851;28;20521;-72
2021/07/23 08:43:17;;;;;;;7.10;4.53;;;;;;;27.61;35.41;93996.53;4981470;28;20049;-73
2021/07/23 08:45:47;;;;;;;6.75;4.85;;;;;;;27.85;35.46;93982.88;4981650;28;20396;-71
2021/07/23 08:48:23;;;;;;;8.27;4.72;;;;;;;27.94;36.10;93985.94;4982858;28;20053;-72
2021/07/23 08:50:53;;;;;;;5.28;3.67;;;;;;;28.08;33.91;93978.91;4984145;28;20890;-71
2021/07/23 08:53:23;;;;;;;6.55;4.20;;;;;;;28.32;34.11;93984.25;4984174;28;20477;-72
2021/07/23 08:55:52;;;;;;;10.55;3.70;;;;;;;28.14;31.78;93988.22;4982322;28;20072;-72
2021/07/23 08:58:32;;;;;;;14.63;4.32;;;;;;;27.87;33.36;93988.69;4984652;28;20049;-72
2021/07/23 09:01:03;;;;;;;7.25;4.43;;;;;;;27.74;32.68;93987.56;4982195;28;20416;-72
2021/07/23 09:03:34;;;;;;;5.20;3.55;;;;;;;27.78;31.33;93977.47;4987476;28;20061;-70
2021/07/23 09:06:22;;;;;;;4.97;3.63;;;;;;;27.98;33.28;93980.50;4982597;28;20021;-71
2021/07/23 09:08:58;;;;;;;7.10;3.80;;;;;;;28.12;32.86;93982.41;4984063;28;20022;-72
2021/07/23 09:11:34;;;;;;;9.93;4.05;;;;;;;27.79;29.56;93978.25;4981146;28;20046;-72
2021/07/23 09:14:20;;;;;;;5.65;3.83;;;;;;;28.07;30.71;93977.34;4983584;28;20034;-72
2021/07/23 09:16:59;;;;;;;6.82;3.42;;;;;;;28.23;30.69;93977.69;4982130;28;20165;-73
2021/07/23 09:19:38;;;;;;;5.97;4.05;;;;;;;28.32;28.91;93980.75;4983825;28;20084;-73
2021/07/23 09:22:26;;;;;;;3.97;3.40;;;;;;;28.34;28.58;93970.28;4984140;28;20038;-72
2021/07/23 09:25:44;;;;;;;4.45;3.58;;;;;;;28.38;28.41;93968.31;4983604;28;20038;-72
2021/07/23 09:28:45;;;;;;;7.32;3.70;;;;;;;28.39;28.02;93969.88;4983391;28;20057;-73
2021/07/23 09:31:45;;;;;;;4.70;2.80;;;;;;;28.45;28.74;93954.66;4984773;28;20045;-71
2021/07/23 09:34:56;;;;;;;5.38;3.75;;;;;;;28.35;28.38;93955.50;4982398;28;20525;-72
2021/07/23 09:38:05;;;;;;;6.72;4.30;;;;;;;28.00;28.74;93959.91;4981270;28;20128;-71
2021/07/23 09:41:01;;;;;;;5.18;3.90;;;;;;;27.81;27.77;93960.38;4988696;28;20069;-71
2021/07/23 09:43:53;;;;;;;4.93;3.65;;;;;;;27.85;28.62;93957.66;4982840;28;20462;-72
2021/07/23 09:46:59;;;;;;;5.80;3.88;;;;;;;27.83;27.75;93954.56;4990404;28;20038;-73
2021/07/23 09:52:48;;;;;;;5.30;4.47;;;;;;;28.26;28.04;93952.44;4981299;28;20112;-71
2021/07/23 09:55:34;;;;;;;4.07;3.67;;;;;;;28.31;27.89;93952.03;4991061;28;20034;-70
2021/07/23 09:58:03;;;;;;;6.60;4.55;;;;;;;28.38;27.56;93954.72;4983908;28;20419;-71
2021/07/23 10:00:32;;;;;;;3.80;3.30;;;;;;;28.54;26.96;93946.09;4984864;28;20046;-71
2021/07/23 10:02:58;;;;;;;4.03;3.55;;;;;;;28.35;27.98;93944.63;4986422;28;20034;-73
2021/07/23 10:05:31;;;;;;;4.43;3.35;;;;;;;27.97;27.37;93928.09;4981428;28;20116;-72
2021/07/23 10:08:02;;;;;;;8.63;3.85;;;;;;;28.22;28.13;93936.16;4982388;28;20699;-73
2021/07/23 10:10:28;;;;;;;4.72;3.70;;;;;;;28.02;28.29;93940.50;4981911;28;20120;-73
2021/07/23 10:12:55;;;;;;;4.65;3.72;;;;;;;28.34;29.29;93935.72;4982147;28;20038;-73
2021/07/23 10:15:20;;;;;;;5.82;4.32;;;;;;;28.48;28.98;93923.22;4982968;28;20045;-71
2021/07/23 10:17:47;;;;;;;8.50;3.95;;;;;;;28.37;27.61;93925.97;4985094;28;20645;-71
2021/07/23 10:20:13;;;;;;;7.13;4.55;;;;;;;27.81;28.09;93889.75;4982386;28;20045;-71
2021/07/23 10:22:40;;;;;;;8.57;5.63;;;;;;;28.28;28.13;93917.50;4984104;28;20604;-71
2021/07/23 10:25:07;;;;;;;7.82;4.68;;;;;;;28.56;28.23;93922.75;4981973;28;20517;-72
2021/07/23 10:27:32;;;;;;;5.63;4.05;;;;;;;28.75;28.06;93918.75;4982958;28;20042;-70
2021/07/23 10:29:58;;;;;;;7.30;4.72;;;;;;;28.96;27.29;93913.16;4980612;28;20625;-72
2021/07/23 10:32:24;;;;;;;7.60;4.28;;;;;;;28.80;26.96;93919.09;4984160;28;20128;-71
2021/07/23 10:34:54;;;;;;;8.20;4.88;;;;;;;28.96;27.90;93923.25;4980172;28;20055;-71
2021/07/23 10:37:28;;;;;;;6.40;4.05;;;;;;;29.10;26.92;93912.25;4982167;28;20038;-71
2021/07/23 10:40:09;;;;;;;5.40;4.43;;;;;;;29.16;27.25;93916.84;4980530;28;20903;-72
2021/07/23 10:42:37;;;;;;;6.00;4.53;;;;;;;29.18;27.47;93914.50;4981800;28;20062;-70
2021/07/23 10:45:08;;;;;;;6.13;4.20;;;;;;;29.20;27.68;93900.47;4982490;28;20861;-71
2021/07/23 10:47:38;;;;;;;7.22;4.32;;;;;;;29.18;27.16;93900.09;4984520;28;20022;-73
2021/07/23 10:50:06;;;;;;;6.05;4.97;;;;;;;29.26;27.86;93899.66;4981511;28;20294;-72
2021/07/23 10:52:36;;;;;;;6.30;3.40;;;;;;;29.35;27.14;93906.59;4982888;28;20129;-71
2021/07/23 10:55:20;;;;;;;5.55;4.57;;;;;;;29.03;27.12;93910.34;4980754;28;20042;-71
2021/07/23 10:58:05;;;;;;;4.85;3.97;;;;;;;29.01;27.49;93901.84;4982458;28;20046;-72
2021/07/23 11:00:51;;;;;;;7.43;4.50;;;;;;;28.96;27.81;93901.50;4978851;28;20783;-71
2021/07/23 11:03:39;;;;;;;7.05;4.47;;;;;;;28.96;28.16;93898.78;4991267;28;20620;-71
2021/07/23 11:06:14;;;;;;;6.00;4.25;;;;;;;29.37;27.27;93899.56;4984693;28;20510;-71
2021/07/23 11:08:46;;;;;;;4.78;4.10;;;;;;;29.37;27.32;93891.38;4985402;28;20377;-70
2021/07/23 11:11:13;;;;;;;5.63;4.65;;;;;;;29.43;27.84;93897.94;4985159;28;20035;-71
2021/07/23 11:13:38;;;;;;;7.47;4.35;;;;;;;29.58;27.34;93887.66;4981675;28;20497;-71
2021/07/23 11:16:16;;;;;;;7.05;4.70;;;;;;;29.52;27.59;93886.56;4986211;28;20141;-71
2021/07/23 11:18:52;;;;;;;6.38;5.18;;;;;;;29.60;28.23;93885.31;4992287;28;20105;-71
2021/07/23 11:21:17;;;;;;;7.15;5.10;;;;;;;29.69;27.27;93888.31;4982212;28;20054;-72
2021/07/23 11:23:45;;;;;;;7.35;5.30;;;;;;;29.64;27.56;93886.03;4986164;28;20397;-71
2021/07/23 11:26:11;;;;;;;6.75;5.10;;;;;;;29.45;26.77;93889.38;4983988;28;20129;-72
2021/07/23 11:28:51;;;;;;;6.88;4.25;;;;;;;29.53;26.44;93875.25;4985511;28;20045;-72
2021/07/23 11:31:29;;;;;;;6.93;4.57;;;;;;;29.65;27.76;93866.56;4987529;28;20100;-72
2021/07/23 11:33:55;;;;;;;6.97;3.97;;;;;;;29.68;26.56;93873.16;4984420;28;20038;-72
2021/07/23 11:36:34;;;;;;;6.18;4.22;;;;;;;29.60;27.79;93858.84;4985902;28;20091;-72
2021/07/23 11:39:05;;;;;;;5.63;4.55;;;;;;;29.70;26.88;93871.56;4982916;28;20537;-70
2021/07/23 11:41:31;;;;;;;7.90;4.47;;;;;;;29.75;26.54;93861.41;4986167;28;20037;-72